Time;durP1;ratioP1;P1;durP2;ratioP2;P2;SDS_P1;SDS_P2;PMS_P1;PMS_P2;Temp;Humidity;BMP_temperature;BMP_pressure;BME280_temperature;BME280_humidity;BME280_pressure;Samples;Min_cycle;Max_cycle;Signal;HPM_P1;HPM_P2
2023/08/22 00:00:23;;;;;;;3.20;2.88;;;;;;;;;;6313178;22;20018;-88
2023/08/22 00:02:49;;;;;;;4.43;3.33;;;;;;;;;;6339185;22;20343;-88
2023/08/22 00:05:15;;;;;;;3.72;3.08;;;;;;;;;;6366396;22;20097;-87
2023/08/22 00:07:42;;;;;;;5.95;3.13;;;;;;;;;;6313086;22;20085;-88
2023/08/22 00:10:09;;;;;;;3.25;2.25;;;;;;;;;;6311766;22;20019;-87
2023/08/22 00:12:35;;;;;;;3.35;2.30;;;;;;;;;;6339411;22;20014;-87
2023/08/22 00:15:04;;;;;;;3.45;2.00;;;;;;;;;;6338516;22;20021;-88
2023/08/22 00:17:31;;;;;;;3.85;1.88;;;;;;;;;;6367140;22;20010;-88
2023/08/22 00:19:57;;;;;;;3.70;1.77;;;;;;;;;;6337936;22;20040;-87
2023/08/22 00:22:23;;;;;;;3.38;2.30;;;;;;;;;;6338618;22;20050;-86
2023/08/22 00:24:49;;;;;;;2.67;1.88;;;;;;;;;;6338616;22;20025;-88
2023/08/22 00:27:15;;;;;;;4.30;1.83;;;;;;;;;;6337274;22;20574;-88
2023/08/22 00:29:41;;;;;;;2.30;1.80;;;;;;;;;;6338270;22;20395;-87
2023/08/22 00:32:07;;;;;;;2.47;1.77;;;;;;;;;;6365539;22;20014;-88
2023/08/22 00:34:33;;;;;;;2.83;2.20;;;;;;;;;;6338358;22;20021;-88
2023/08/22 00:36:59;;;;;;;3.65;2.83;;;;;;;;;;6365790;22;20011;-87
2023/08/22 00:39:25;;;;;;;3.20;2.30;;;;;;;;;;6343099;22;20026;-88
2023/08/22 00:41:51;;;;;;;3.08;2.17;;;;;;;;;;6374268;22;20014;-87
2023/08/22 00:44:17;;;;;;;4.40;2.42;;;;;;;;;;6366012;22;20022;-87
2023/08/22 00:46:43;;;;;;;4.18;2.33;;;;;;;;;;6339003;22;20343;-88
2023/08/22 00:49:09;;;;;;;3.42;2.80;;;;;;;;;;6337280;22;20022;-87
2023/08/22 00:51:39;;;;;;;6.20;2.83;;;;;;;;;;6338870;22;20021;-87
2023/08/22 00:54:06;;;;;;;3.88;2.92;;;;;;;;;;6337485;22;20065;-87
2023/08/22 00:56:32;;;;;;;3.70;3.08;;;;;;;;;;6366652;22;20014;-87
2023/08/22 00:58:59;;;;;;;4.05;3.17;;;;;;;;;;6365429;22;20335;-87
2023/08/22 01:01:25;;;;;;;4.07;3.40;;;;;;;;;;6338207;22;20037;-88
2023/08/22 01:03:51;;;;;;;4.82;3.10;;;;;;;;;;6366276;22;20102;-87
2023/08/22 01:06:23;;;;;;;3.22;2.80;;;;;;;;;;6337438;22;20388;-88
2023/08/22 01:08:51;;;;;;;4.55;3.05;;;;;;;;;;6338784;22;20015;-87
2023/08/22 01:11:21;;;;;;;4.20;2.90;;;;;;;;;;6366630;22;20330;-88
2023/08/22 01:13:47;;;;;;;3.55;2.65;;;;;;;;;;6339363;22;20014;-87
2023/08/22 01:16:14;;;;;;;4.03;2.92;;;;;;;;;;6338267;22;20018;-88
2023/08/22 01:18:40;;;;;;;3.83;3.22;;;;;;;;;;6367255;22;20328;-87
2023/08/22 01:21:06;;;;;;;5.13;3.38;;;;;;;;;;6365883;22;20014;-87
2023/08/22 01:23:32;;;;;;;4.45;3.10;;;;;;;;;;6337141;22;20021;-87
2023/08/22 01:25:59;;;;;;;4.38;2.90;;;;;;;;;;6366207;22;20063;-88
2023/08/22 01:28:48;;;;;;;3.72;2.67;;;;;;;;;;6312650;22;20019;-87
2023/08/22 01:31:23;;;;;;;3.80;2.70;;;;;;;;;;6318872;22;20399;-87
2023/08/22 01:33:58;;;;;;;3.40;2.60;;;;;;;;;;6338141;22;20049;-87
2023/08/22 01:36:25;;;;;;;4.25;3.20;;;;;;;;;;6365764;22;20026;-87
2023/08/22 01:38:52;;;;;;;4.22;2.72;;;;;;;;;;6366417;22;20014;-87
2023/08/22 01:41:19;;;;;;;3.30;2.38;;;;;;;;;;6337181;22;20085;-87
2023/08/22 01:43:45;;;;;;;2.72;2.53;;;;;;;;;;6367253;22;20022;-88
2023/08/22 01:46:12;;;;;;;3.13;2.20;;;;;;;;;;6311958;22;20021;-86
2023/08/22 01:48:38;;;;;;;3.35;2.97;;;;;;;;;;6316645;22;20010;-88
2023/08/22 01:51:04;;;;;;;4.22;3.10;;;;;;;;;;6366189;22;20014;-87
2023/08/22 01:53:30;;;;;;;3.55;2.67;;;;;;;;;;6338443;22;20017;-87
2023/08/22 01:56:00;;;;;;;4.90;2.83;;;;;;;;;;6365423;22;20010;-87
2023/08/22 01:58:26;;;;;;;2.88;2.65;;;;;;;;;;6338874;22;20010;-87
2023/08/22 02:00:52;;;;;;;5.82;2.60;;;;;;;;;;6366369;22;20014;-88
2023/08/22 02:03:18;;;;;;;4.13;2.78;;;;;;;;;;6337832;22;20059;-88
2023/08/22 02:05:44;;;;;;;4.75;2.90;;;;;;;;;;6337662;22;20018;-88
2023/08/22 02:08:11;;;;;;;5.15;2.88;;;;;;;;;;6337438;22;20017;-88
2023/08/22 02:10:36;;;;;;;2.92;2.63;;;;;;;;;;6366870;22;20331;-88
2023/08/22 02:13:03;;;;;;;3.13;2.80;;;;;;;;;;6338565;22;20049;-87
2023/08/22 02:15:29;;;;;;;3.05;2.75;;;;;;;;;;6338802;22;20356;-87
2023/08/22 02:17:55;;;;;;;3.47;3.15;;;;;;;;;;6338083;22;20447;-87
2023/08/22 02:20:22;;;;;;;4.20;3.05;;;;;;;;;;6366166;22;20032;-87
2023/08/22 02:22:48;;;;;;;4.63;3.47;;;;;;;;;;6338921;22;20458;-87
2023/08/22 02:25:14;;;;;;;3.78;3.00;;;;;;;;;;6337689;22;20029;-88
2023/08/22 02:27:40;;;;;;;5.18;2.88;;;;;;;;;;6338011;22;20117;-87
2023/08/22 02:30:07;;;;;;;4.75;3.72;;;;;;;;;;6338125;22;20023;-87
2023/08/22 02:32:33;;;;;;;4.15;3.35;;;;;;;;;;6366661;22;20010;-87
2023/08/22 02:34:59;;;;;;;4.70;3.38;;;;;;;;;;6364942;22;20018;-87
2023/08/22 02:37:25;;;;;;;5.45;3.92;;;;;;;;;;6366242;22;20010;-87
2023/08/22 02:39:53;;;;;;;3.63;3.28;;;;;;;;;;6311765;22;20014;-87
2023/08/22 02:42:19;;;;;;;4.07;3.78;;;;;;;;;;6370184;22;20331;-88
2023/08/22 02:44:45;;;;;;;6.05;3.33;;;;;;;;;;6367995;22;20017;-87
2023/08/22 02:47:11;;;;;;;4.82;3.67;;;;;;;;;;6365676;22;20017;-88
2023/08/22 02:49:37;;;;;;;3.92;3.25;;;;;;;;;;6338702;22;20014;-88
2023/08/22 02:52:03;;;;;;;6.13;3.85;;;;;;;;;;6337985;22;20054;-87
2023/08/22 02:54:29;;;;;;;6.85;4.35;;;;;;;;;;6339606;22;20025;-88
2023/08/22 02:56:55;;;;;;;5.50;4.13;;;;;;;;;;6368013;22;20331;-87
2023/08/22 02:59:21;;;;;;;4.68;3.58;;;;;;;;;;6339891;22;20014;-87
2023/08/22 03:01:47;;;;;;;4.72;3.85;;;;;;;;;;6368861;22;20014;-87
2023/08/22 03:04:13;;;;;;;5.35;3.53;;;;;;;;;;6367435;22;20014;-88
2023/08/22 03:06:39;;;;;;;5.53;3.83;;;;;;;;;;6314488;22;20014;-87
2023/08/22 03:09:06;;;;;;;5.00;4.32;;;;;;;;;;6368004;22;20017;-87
2023/08/22 03:11:32;;;;;;;4.75;3.95;;;;;;;;;;6368216;22;20079;-88
2023/08/22 03:13:58;;;;;;;6.38;4.07;;;;;;;;;;6313632;22;20050;-87
2023/08/22 03:16:24;;;;;;;6.13;4.28;;;;;;;;;;6340135;22;20067;-87
2023/08/22 03:18:50;;;;;;;4.35;3.63;;;;;;;;;;6338928;22;20022;-87
2023/08/22 03:21:16;;;;;;;6.20;4.20;;;;;;;;;;6339508;22;20014;-88
2023/08/22 03:23:42;;;;;;;6.53;4.18;;;;;;;;;;6339561;22;20014;-87
2023/08/22 03:26:10;;;;;;;5.15;4.10;;;;;;;;;;6367155;22;20151;-87
2023/08/22 03:28:37;;;;;;;6.80;4.35;;;;;;;;;;6340161;22;20163;-86
2023/08/22 03:31:03;;;;;;;5.53;4.57;;;;;;;;;;6367702;22;20353;-86
2023/08/22 03:33:29;;;;;;;6.32;3.92;;;;;;;;;;6367251;22;20089;-87
2023/08/22 03:35:56;;;;;;;5.93;4.20;;;;;;;;;;6367543;22;20018;-86
2023/08/22 03:38:22;;;;;;;5.18;4.32;;;;;;;;;;6339124;22;20022;-86
2023/08/22 03:40:49;;;;;;;5.22;4.20;;;;;;;;;;6339541;22;20018;-86
2023/08/22 03:43:16;;;;;;;4.75;4.05;;;;;;;;;;6339209;22;20460;-86
2023/08/22 03:45:43;;;;;;;6.05;4.60;;;;;;;;;;6340259;22;20018;-86
2023/08/22 03:48:09;;;;;;;5.93;4.22;;;;;;;;;;6338757;22;20022;-86
2023/08/22 03:50:36;;;;;;;4.75;3.80;;;;;;;;;;6340178;22;20022;-86
2023/08/22 03:53:02;;;;;;;4.82;4.18;;;;;;;;;;6367361;22;20006;-86
2023/08/22 03:55:29;;;;;;;6.05;4.20;;;;;;;;;;6367308;22;20483;-86
2023/08/22 03:57:55;;;;;;;6.40;4.03;;;;;;;;;;6339160;22;20136;-86
2023/08/22 04:00:21;;;;;;;6.50;4.63;;;;;;;;;;6313025;22;20014;-86
2023/08/22 04:02:47;;;;;;;5.60;4.90;;;;;;;;;;6340114;22;20343;-86
2023/08/22 04:05:13;;;;;;;5.43;4.28;;;;;;;;;;6366932;22;20085;-86
2023/08/22 04:07:39;;;;;;;6.78;4.60;;;;;;;;;;6339922;22;20067;-86
2023/08/22 04:10:05;;;;;;;6.63;4.05;;;;;;;;;;6339528;22;20010;-86
2023/08/22 04:12:32;;;;;;;4.78;3.92;;;;;;;;;;6342705;22;20071;-86
2023/08/22 04:14:58;;;;;;;7.20;4.45;;;;;;;;;;6367119;22;20010;-86
2023/08/22 04:17:24;;;;;;;6.63;4.57;;;;;;;;;;6367495;22;20455;-87
2023/08/22 04:19:50;;;;;;;5.00;4.40;;;;;;;;;;6367604;22;20011;-86
2023/08/22 04:22:16;;;;;;;7.47;4.68;;;;;;;;;;6339565;22;20458;-87
2023/08/22 04:24:42;;;;;;;6.03;4.45;;;;;;;;;;6367613;22;20015;-87
2023/08/22 04:27:08;;;;;;;5.65;4.28;;;;;;;;;;6338426;22;20028;-87
2023/08/22 04:29:34;;;;;;;4.68;4.03;;;;;;;;;;6366626;22;20088;-87
2023/08/22 04:32:03;;;;;;;5.88;4.53;;;;;;;;;;6339001;22;20081;-87
2023/08/22 04:34:29;;;;;;;5.70;4.68;;;;;;;;;;6338860;22;20020;-87
2023/08/22 04:36:55;;;;;;;5.38;4.13;;;;;;;;;;6367594;22;20046;-87
2023/08/22 04:39:21;;;;;;;6.43;3.92;;;;;;;;;;6338918;22;20128;-88
2023/08/22 04:41:50;;;;;;;5.63;4.18;;;;;;;;;;6338942;22;20022;-88
2023/08/22 04:44:16;;;;;;;7.82;4.55;;;;;;;;;;6342281;22;20014;-88
2023/08/22 04:46:42;;;;;;;4.75;3.95;;;;;;;;;;6374301;22;20332;-88
2023/08/22 04:49:08;;;;;;;5.38;3.95;;;;;;;;;;6338716;22;20019;-88
2023/08/22 04:51:34;;;;;;;5.85;3.83;;;;;;;;;;6339740;22;20010;-90
2023/08/22 04:54:00;;;;;;;5.38;4.50;;;;;;;;;;6339761;22;20007;-89
2023/08/22 04:56:26;;;;;;;9.60;4.75;;;;;;;;;;6339340;22;20443;-86
2023/08/22 04:58:53;;;;;;;5.18;4.53;;;;;;;;;;6366591;22;20089;-85
2023/08/22 05:01:19;;;;;;;5.78;4.40;;;;;;;;;;6338561;22;20010;-86
2023/08/22 05:03:46;;;;;;;5.57;4.53;;;;;;;;;;6338995;22;20018;-86
2023/08/22 05:06:13;;;;;;;4.90;4.40;;;;;;;;;;6365863;22;20007;-87
2023/08/22 05:08:39;;;;;;;6.32;4.05;;;;;;;;;;6367474;22;20013;-88
2023/08/22 05:11:05;;;;;;;8.57;4.38;;;;;;;;;;6338498;22;20094;-86
2023/08/22 05:13:31;;;;;;;5.38;3.78;;;;;;;;;;6367071;22;20179;-88
2023/08/22 05:15:57;;;;;;;6.85;4.45;;;;;;;;;;6337146;22;20373;-88
2023/08/22 05:18:23;;;;;;;5.35;4.50;;;;;;;;;;6312211;22;20068;-85
2023/08/22 05:20:52;;;;;;;6.10;4.43;;;;;;;;;;6367588;22;20014;-88
2023/08/22 05:23:18;;;;;;;6.82;4.97;;;;;;;;;;6338317;22;20059;-87
2023/08/22 05:25:44;;;;;;;5.72;5.15;;;;;;;;;;6339923;22;20094;-87
2023/08/22 05:28:10;;;;;;;5.85;4.35;;;;;;;;;;6336645;22;20038;-86
2023/08/22 05:30:40;;;;;;;4.18;3.78;;;;;;;;;;6338223;22;20653;-87
2023/08/22 05:33:06;;;;;;;4.53;3.53;;;;;;;;;;6365847;22;20014;-88
2023/08/22 05:35:32;;;;;;;3.83;3.42;;;;;;;;;;6339911;22;20014;-87
2023/08/22 05:37:59;;;;;;;5.13;3.85;;;;;;;;;;6339419;22;20022;-87
2023/08/22 05:40:25;;;;;;;4.28;3.50;;;;;;;;;;6338495;22;20511;-88
2023/08/22 05:42:52;;;;;;;4.72;4.20;;;;;;;;;;6368785;22;20010;-89
2023/08/22 05:45:19;;;;;;;5.10;4.60;;;;;;;;;;6342449;22;20122;-86
2023/08/22 05:47:45;;;;;;;5.32;4.35;;;;;;;;;;6342999;22;20025;-86
2023/08/22 05:50:12;;;;;;;7.93;4.55;;;;;;;;;;6341300;22;20020;-89
2023/08/22 05:52:38;;;;;;;7.25;4.60;;;;;;;;;;6368695;22;20010;-87
2023/08/22 05:55:04;;;;;;;7.28;4.43;;;;;;;;;;6339359;22;20017;-87
2023/08/22 05:57:33;;;;;;;6.85;4.78;;;;;;;;;;6339182;22;20019;-87
2023/08/22 05:59:59;;;;;;;8.05;5.65;;;;;;;;;;6367165;22;20312;-89
2023/08/22 06:02:25;;;;;;;7.40;5.03;;;;;;;;;;6340893;22;20010;-88
2023/08/22 06:04:51;;;;;;;7.10;5.30;;;;;;;;;;6368379;22;20014;-87
2023/08/22 06:07:17;;;;;;;7.72;4.63;;;;;;;;;;6368466;22;20017;-89
2023/08/22 06:09:44;;;;;;;8.57;5.10;;;;;;;;;;6340481;22;20014;-88
2023/08/22 06:12:11;;;;;;;7.43;5.15;;;;;;;;;;6338844;22;20018;-89
2023/08/22 06:14:38;;;;;;;6.28;5.55;;;;;;;;;;6344494;22;20390;-86
2023/08/22 06:17:04;;;;;;;8.55;5.45;;;;;;;;;;6372089;22;20014;-87
2023/08/22 06:19:30;;;;;;;6.70;4.65;;;;;;;;;;6344778;22;20029;-87
2023/08/22 06:21:56;;;;;;;8.65;5.30;;;;;;;;;;6346423;22;20018;-90
2023/08/22 06:24:22;;;;;;;6.75;5.95;;;;;;;;;;6348885;22;20351;-88
2023/08/22 06:26:48;;;;;;;7.82;4.80;;;;;;;;;;6371522;22;20019;-87
2023/08/22 06:29:15;;;;;;;7.13;5.00;;;;;;;;;;6343565;22;20034;-86
2023/08/22 06:31:41;;;;;;;8.27;5.15;;;;;;;;;;6369702;22;20010;-88
2023/08/22 06:34:07;;;;;;;10.48;5.57;;;;;;;;;;6337079;22;20442;-87
2023/08/22 06:36:33;;;;;;;7.78;5.47;;;;;;;;;;6365895;22;20478;-87
2023/08/22 06:39:00;;;;;;;7.32;5.38;;;;;;;;;;6336791;22;20014;-87
2023/08/22 06:41:27;;;;;;;9.98;5.65;;;;;;;;;;6337272;22;20014;-87
2023/08/22 06:43:53;;;;;;;10.32;6.47;;;;;;;;;;6338384;22;20014;-89
2023/08/22 06:46:21;;;;;;;10.20;5.68;;;;;;;;;;6369864;22;20011;-88
2023/08/22 06:48:48;;;;;;;8.98;4.78;;;;;;;;;;6346734;22;20033;-89
2023/08/22 06:51:14;;;;;;;10.70;5.38;;;;;;;;;;6339225;22;20022;-89
2023/08/22 06:53:40;;;;;;;9.15;5.35;;;;;;;;;;6339354;22;20302;-87
2023/08/22 06:56:06;;;;;;;7.53;5.50;;;;;;;;;;6337289;22;20018;-90
2023/08/22 06:58:32;;;;;;;7.38;5.38;;;;;;;;;;6339474;22;20038;-88
2023/08/22 07:00:58;;;;;;;10.73;5.93;;;;;;;;;;6339475;22;20018;-88
2023/08/22 07:03:24;;;;;;;8.82;5.78;;;;;;;;;;6367989;22;20071;-88
2023/08/22 07:05:54;;;;;;;7.45;5.43;;;;;;;;;;6339558;22;20066;-87
2023/08/22 07:08:20;;;;;;;9.40;5.03;;;;;;;;;;6340324;22;20011;-87
2023/08/22 07:10:46;;;;;;;9.57;5.60;;;;;;;;;;6369121;22;20090;-91
2023/08/22 07:13:12;;;;;;;7.85;5.22;;;;;;;;;;6340426;22;20007;-91
2023/08/22 07:15:38;;;;;;;13.35;7.07;;;;;;;;;;6367011;22;20013;-90
2023/08/22 07:18:04;;;;;;;11.27;5.93;;;;;;;;;;6338560;22;20411;-90
2023/08/22 07:20:30;;;;;;;8.18;4.70;;;;;;;;;;6338224;22;20286;-92
2023/08/22 07:22:56;;;;;;;8.35;4.80;;;;;;;;;;6338410;22;20014;-87
2023/08/22 07:25:22;;;;;;;8.38;5.00;;;;;;;;;;6339082;22;20013;-88
2023/08/22 07:27:49;;;;;;;7.57;4.57;;;;;;;;;;6340398;22;20312;-88
2023/08/22 07:30:15;;;;;;;7.05;4.00;;;;;;;;;;6340479;22;20023;-88
2023/08/22 07:32:41;;;;;;;8.68;4.50;;;;;;;;;;6372079;22;20078;-93
2023/08/22 07:35:07;;;;;;;6.80;3.65;;;;;;;;;;6317404;22;20018;-91
2023/08/22 07:37:34;;;;;;;5.07;3.67;;;;;;;;;;6314884;22;20022;-91
2023/08/22 07:40:00;;;;;;;4.40;3.33;;;;;;;;;;6336517;22;20018;-91
2023/08/22 07:42:26;;;;;;;4.68;3.30;;;;;;;;;;6370358;22;20387;-91
2023/08/22 07:44:52;;;;;;;5.22;3.75;;;;;;;;;;6316765;22;20385;-93
2023/08/22 07:47:18;;;;;;;6.97;3.17;;;;;;;;;;6314538;22;20014;-94
2023/08/22 07:49:44;;;;;;;8.20;4.30;;;;;;;;;;6369462;22;20447;-92
2023/08/22 07:52:10;;;;;;;5.93;3.05;;;;;;;;;;6340173;22;20018;-93
2023/08/22 07:54:36;;;;;;;3.75;3.13;;;;;;;;;;6370905;22;20046;-92
2023/08/22 07:57:02;;;;;;;5.80;3.15;;;;;;;;;;6315165;22;20022;-92
2023/08/22 07:59:29;;;;;;;3.97;3.15;;;;;;;;;;6314681;22;20089;-90
2023/08/22 08:01:55;;;;;;;4.85;2.95;;;;;;;;;;6340413;22;20014;-90
2023/08/22 08:04:21;;;;;;;6.38;3.03;;;;;;;;;;6372013;22;20085;-96
2023/08/22 08:06:47;;;;;;;5.57;3.40;;;;;;;;;;6351701;22;20014;-90
2023/08/22 08:09:14;;;;;;;4.43;3.00;;;;;;;;;;6344763;22;20017;-92
2023/08/22 08:11:40;;;;;;;6.25;2.83;;;;;;;;;;6317402;22;20366;-90
2023/08/22 08:14:07;;;;;;;3.85;2.72;;;;;;;;;;6346800;22;20354;-93
2023/08/22 08:16:33;;;;;;;5.22;2.45;;;;;;;;;;6343089;22;20351;-93
2023/08/22 08:18:59;;;;;;;6.47;2.60;;;;;;;;;;6314809;22;20123;-93
2023/08/22 08:21:25;;;;;;;3.65;1.90;;;;;;;;;;6339863;22;20056;-93
2023/08/22 08:23:51;;;;;;;4.18;2.10;;;;;;;;;;6341139;22;20018;-88
2023/08/22 08:26:17;;;;;;;2.25;1.55;;;;;;;;;;6367668;22;20475;-90
2023/08/22 08:28:43;;;;;;;2.45;1.48;;;;;;;;;;6369627;22;20010;-90
2023/08/22 08:31:09;;;;;;;3.25;1.50;;;;;;;;;;6313760;22;20042;-91
2023/08/22 08:33:35;;;;;;;3.60;1.70;;;;;;;;;;6315461;22;20297;-91
2023/08/22 08:36:01;;;;;;;2.40;1.80;;;;;;;;;;6366944;22;20018;-89
2023/08/22 08:38:27;;;;;;;4.07;1.75;;;;;;;;;;6340833;22;20010;-89
2023/08/22 08:40:54;;;;;;;3.50;1.73;;;;;;;;;;6340218;22;20038;-88
2023/08/22 08:43:22;;;;;;;1.88;1.48;;;;;;;;;;6366950;22;20014;-89
2023/08/22 08:45:48;;;;;;;1.85;1.38;;;;;;;;;;6339181;22;20043;-88
2023/08/22 08:48:15;;;;;;;2.45;1.20;;;;;;;;;;6343600;22;20019;-89
2023/08/22 08:50:41;;;;;;;2.85;1.30;;;;;;;;;;6344764;22;20007;-88
2023/08/22 08:53:08;;;;;;;1.63;1.20;;;;;;;;;;6339155;22;20072;-87
2023/08/22 08:55:35;;;;;;;2.92;1.00;;;;;;;;;;6339349;22;20352;-88
2023/08/22 08:58:03;;;;;;;1.63;1.20;;;;;;;;;;6313050;22;20059;-87
2023/08/22 09:00:30;;;;;;;2.03;0.90;;;;;;;;;;6337479;22;20018;-92
2023/08/22 09:02:56;;;;;;;1.35;0.90;;;;;;;;;;6366419;22;20014;-87
2023/08/22 09:05:23;;;;;;;2.28;0.90;;;;;;;;;;6334901;22;20014;-87
2023/08/22 09:07:49;;;;;;;2.15;1.13;;;;;;;;;;6339264;22;20014;-90
2023/08/22 09:10:31;;;;;;;2.05;0.90;;;;;;;;;;6340152;22;20017;-89
2023/08/22 09:13:01;;;;;;;1.88;1.20;;;;;;;;;;6339980;22;20078;-92
2023/08/22 09:15:27;;;;;;;1.30;0.80;;;;;;;;;;6339823;22;20011;-90
2023/08/22 09:17:56;;;;;;;1.60;1.20;;;;;;;;;;6314154;22;20014;-89
2023/08/22 09:20:22;;;;;;;1.30;1.05;;;;;;;;;;6339250;22;20336;-88
2023/08/22 09:22:48;;;;;;;2.85;1.30;;;;;;;;;;6368316;22;20331;-90
2023/08/22 09:25:15;;;;;;;2.42;1.13;;;;;;;;;;6338798;22;20014;-89
2023/08/22 09:27:41;;;;;;;2.17;1.30;;;;;;;;;;6340269;22;20459;-89
2023/08/22 09:30:07;;;;;;;2.10;1.30;;;;;;;;;;6368112;22;20006;-89
2023/08/22 09:32:33;;;;;;;0.95;0.85;;;;;;;;;;6367807;22;20007;-88
2023/08/22 09:35:01;;;;;;;3.25;1.10;;;;;;;;;;6339841;22;20094;-88
2023/08/22 09:37:30;;;;;;;2.38;1.33;;;;;;;;;;6340909;22;20423;-90
2023/08/22 09:39:56;;;;;;;2.85;1.00;;;;;;;;;;6367675;22;20011;-88
2023/08/22 09:42:24;;;;;;;1.85;1.10;;;;;;;;;;6313567;22;20089;-89
2023/08/22 09:44:51;;;;;;;3.13;1.10;;;;;;;;;;6314399;22;20010;-89
2023/08/22 09:47:18;;;;;;;2.90;1.30;;;;;;;;;;6339669;22;20089;-89
2023/08/22 09:49:46;;;;;;;1.55;1.30;;;;;;;;;;6340329;22;20014;-89
2023/08/22 09:52:12;;;;;;;3.80;1.48;;;;;;;;;;6339233;22;20304;-91
2023/08/22 09:54:38;;;;;;;1.73;1.20;;;;;;;;;;6314349;22;20439;-91
2023/08/22 09:57:05;;;;;;;1.90;1.27;;;;;;;;;;6339780;22;20041;-92
2023/08/22 09:59:31;;;;;;;2.10;1.35;;;;;;;;;;6316615;22;20014;-92
2023/08/22 10:01:57;;;;;;;3.97;1.80;;;;;;;;;;6316508;22;20053;-91
2023/08/22 10:04:24;;;;;;;2.35;1.48;;;;;;;;;;6321219;22;20247;-91
2023/08/22 10:06:51;;;;;;;4.50;1.60;;;;;;;;;;6375715;22;20014;-91
2023/08/22 10:09:17;;;;;;;3.20;1.30;;;;;;;;;;6374592;22;20018;-89
2023/08/22 10:11:45;;;;;;;2.13;1.30;;;;;;;;;;6349196;22;20091;-89
2023/08/22 10:14:19;;;;;;;3.05;1.42;;;;;;;;;;6339855;22;20037;-90
2023/08/22 10:16:45;;;;;;;3.25;1.63;;;;;;;;;;6364263;22;20047;-89
2023/08/22 10:19:12;;;;;;;2.88;1.35;;;;;;;;;;6359504;22;20050;-88
2023/08/22 10:21:46;;;;;;;1.98;1.42;;;;;;;;;;6383032;22;20028;-92
2023/08/22 10:24:21;;;;;;;2.25;1.38;;;;;;;;;;6343087;22;20340;-90
2023/08/22 10:26:49;;;;;;;2.55;1.63;;;;;;;;;;6342554;22;20022;-90
2023/08/22 10:29:16;;;;;;;3.78;1.48;;;;;;;;;;6314728;22;20343;-91
2023/08/22 10:32:01;;;;;;;3.67;2.08;;;;;;;;;;6341519;22;20084;-89
2023/08/22 10:34:27;;;;;;;2.03;1.83;;;;;;;;;;6339832;22;20016;-87
2023/08/22 10:36:57;;;;;;;1.30;1.17;;;;;;;;;;6340211;22;20257;-91
2023/08/22 10:39:42;;;;;;;2.13;1.50;;;;;;;;;;6340495;22;20309;-91
2023/08/22 10:42:14;;;;;;;2.17;1.17;;;;;;;;;;6339903;22;20015;-92
2023/08/22 10:44:40;;;;;;;1.45;1.00;;;;;;;;;;6368271;22;20006;-90
2023/08/22 10:47:06;;;;;;;2.10;1.27;;;;;;;;;;6312134;22;20017;-92
2023/08/22 10:49:39;;;;;;;3.22;1.40;;;;;;;;;;6315442;22;20021;-90
2023/08/22 10:52:06;;;;;;;1.60;1.30;;;;;;;;;;6376489;22;20017;-90
2023/08/22 10:54:33;;;;;;;2.85;1.70;;;;;;;;;;6340476;22;20046;-91
2023/08/22 10:57:18;;;;;;;5.18;2.30;;;;;;;;;;6339722;22;20018;-94
2023/08/22 10:59:59;;;;;;;2.55;1.60;;;;;;;;;;6314575;22;20440;-90
2023/08/22 11:02:32;;;;;;;7.25;1.70;;;;;;;;;;6340345;22;20017;-91
2023/08/22 11:05:03;;;;;;;2.47;1.35;;;;;;;;;;6344062;22;20017;-91
2023/08/22 11:07:29;;;;;;;2.42;1.25;;;;;;;;;;6379463;22;20517;-94
2023/08/22 11:09:55;;;;;;;1.60;0.90;;;;;;;;;;6322198;22;20014;-91
2023/08/22 11:12:22;;;;;;;2.63;0.80;;;;;;;;;;6348126;22;20010;-91
2023/08/22 11:14:49;;;;;;;1.55;0.70;;;;;;;;;;6351583;22;20014;-92
2023/08/22 11:17:20;;;;;;;1.90;0.93;;;;;;;;;;6317452;22;20018;-94
2023/08/22 11:19:46;;;;;;;1.20;0.90;;;;;;;;;;6369982;22;20010;-89
2023/08/22 11:22:12;;;;;;;1.38;0.75;;;;;;;;;;6342542;22;20418;-92
2023/08/22 11:24:45;;;;;;;1.05;0.70;;;;;;;;;;6342968;22;20094;-93
2023/08/22 11:27:15;;;;;;;1.90;0.75;;;;;;;;;;6341211;22;20038;-91
2023/08/22 11:29:43;;;;;;;1.83;0.63;;;;;;;;;;6342767;22;20018;-92
2023/08/22 11:32:24;;;;;;;0.95;0.60;;;;;;;;;;6369091;22;20432;-92
2023/08/22 11:34:50;;;;;;;2.05;0.57;;;;;;;;;;6341506;22;20054;-91
2023/08/22 11:37:17;;;;;;;2.08;0.70;;;;;;;;;;6317814;22;20022;-93
2023/08/22 11:39:47;;;;;;;2.50;0.70;;;;;;;;;;6347676;22;20018;-93
2023/08/22 11:42:17;;;;;;;1.55;0.50;;;;;;;;;;6346986;22;20014;-87
2023/08/22 11:44:52;;;;;;;1.65;0.55;;;;;;;;;;6378803;22;20006;-93
2023/08/22 11:47:18;;;;;;;1.38;0.50;;;;;;;;;;6346859;22;20010;-91
2023/08/22 11:49:44;;;;;;;1.63;0.60;;;;;;;;;;6375663;22;20221;-93
2023/08/22 11:52:10;;;;;;;1.30;0.50;;;;;;;;;;6366328;22;20343;-91
2023/08/22 11:54:43;;;;;;;1.05;0.70;;;;;;;;;;6395795;22;20034;-94
2023/08/22 11:57:09;;;;;;;2.47;0.52;;;;;;;;;;6394031;22;20018;-93
2023/08/22 11:59:35;;;;;;;1.85;0.50;;;;;;;;;;6356490;22;20111;-93
2023/08/22 12:02:01;;;;;;;0.50;0.40;;;;;;;;;;6344134;22;20365;-92
2023/08/22 12:04:40;;;;;;;1.33;0.70;;;;;;;;;;6317934;22;20245;-94
2023/08/22 12:07:06;;;;;;;3.50;0.85;;;;;;;;;;6344087;22;20335;-93
2023/08/22 12:09:32;;;;;;;1.33;0.65;;;;;;;;;;6343573;22;20081;-95
2023/08/22 12:12:11;;;;;;;0.57;0.32;;;;;;;;;;6343776;22;20077;-94
2023/08/22 12:14:38;;;;;;;1.25;0.75;;;;;;;;;;6317906;22;20335;-92
2023/08/22 12:17:04;;;;;;;1.70;0.65;;;;;;;;;;6317021;22;20018;-92
2023/08/22 12:19:30;;;;;;;2.97;1.05;;;;;;;;;;6315759;22;20285;-93
2023/08/22 12:21:57;;;;;;;1.77;0.65;;;;;;;;;;6340988;22;20457;-91
2023/08/22 12:24:23;;;;;;;2.58;0.70;;;;;;;;;;6371091;22;20007;-91
2023/08/22 12:26:49;;;;;;;0.68;0.47;;;;;;;;;;6341515;22;20018;-93
2023/08/22 12:29:15;;;;;;;1.17;0.40;;;;;;;;;;6315673;22;20017;-91
2023/08/22 12:31:41;;;;;;;1.00;0.47;;;;;;;;;;6370127;22;20034;-92
2023/08/22 12:34:07;;;;;;;1.05;0.40;;;;;;;;;;6368708;22;20462;-91
2023/08/22 12:36:34;;;;;;;2.65;0.70;;;;;;;;;;6342133;22;20022;-95
2023/08/22 12:39:00;;;;;;;3.22;0.70;;;;;;;;;;6315195;22;20316;-92
2023/08/22 12:41:26;;;;;;;1.40;0.70;;;;;;;;;;6341604;22;20060;-92
2023/08/22 12:43:52;;;;;;;0.70;0.60;;;;;;;;;;6341838;22;20040;-93
2023/08/22 12:46:18;;;;;;;0.68;0.68;;;;;;;;;;6347555;22;20116;-95
2023/08/22 12:48:45;;;;;;;1.05;0.60;;;;;;;;;;6320071;22;20017;-96
2023/08/22 12:51:11;;;;;;;2.20;0.93;;;;;;;;;;6324444;22;20200;-95
2023/08/22 12:53:37;;;;;;;2.00;0.60;;;;;;;;;;6361361;22;20017;-96
2023/08/22 12:56:03;;;;;;;2.78;0.90;;;;;;;;;;6333156;22;20014;-95
2023/08/22 12:58:30;;;;;;;1.63;0.80;;;;;;;;;;6323228;22;20071;-94
2023/08/22 13:00:56;;;;;;;1.67;1.00;;;;;;;;;;6322648;22;20041;-96
2023/08/22 13:03:22;;;;;;;1.13;0.77;;;;;;;;;;6348649;22;20010;-94
2023/08/22 13:05:49;;;;;;;3.20;0.85;;;;;;;;;;6320062;22;20071;-93
2023/08/22 13:08:15;;;;;;;1.63;0.70;;;;;;;;;;6370867;22;20014;-94
2023/08/22 13:10:41;;;;;;;2.72;1.13;;;;;;;;;;6349415;22;20017;-96
2023/08/22 13:13:07;;;;;;;1.73;0.70;;;;;;;;;;6344238;22;20006;-94
2023/08/22 13:15:33;;;;;;;1.23;0.90;;;;;;;;;;6321309;22;20010;-96
2023/08/22 13:17:59;;;;;;;3.53;1.23;;;;;;;;;;6346980;22;20136;-95
2023/08/22 13:20:25;;;;;;;1.92;1.15;;;;;;;;;;6328289;22;20014;-96
2023/08/22 13:22:51;;;;;;;2.90;0.90;;;;;;;;;;6326379;22;20014;-96
2023/08/22 13:25:17;;;;;;;1.63;0.80;;;;;;;;;;6329046;22;20014;-94
2023/08/22 13:27:43;;;;;;;2.00;0.90;;;;;;;;;;6328712;22;20151;-96
2023/08/22 13:30:09;;;;;;;2.28;0.85;;;;;;;;;;6321492;22;20066;-96
2023/08/22 13:32:35;;;;;;;1.38;1.00;;;;;;;;;;6325836;22;20018;-94
2023/08/22 13:35:02;;;;;;;1.17;0.85;;;;;;;;;;6323000;22;20019;-96
2023/08/22 13:37:33;;;;;;;1.25;0.88;;;;;;;;;;6349972;22;20038;-96
2023/08/22 13:40:04;;;;;;;2.45;1.02;;;;;;;;;;6317357;22;20021;-96
2023/08/22 13:42:30;;;;;;;2.92;1.40;;;;;;;;;;6317910;22;20071;-96
2023/08/22 13:44:56;;;;;;;2.05;0.70;;;;;;;;;;6319616;22;20006;-96
2023/08/22 13:47:22;;;;;;;3.28;1.13;;;;;;;;;;6320876;22;20435;-96
2023/08/22 13:49:52;;;;;;;2.42;0.85;;;;;;;;;;6347234;22;20011;-96
2023/08/22 13:52:18;;;;;;;2.53;0.80;;;;;;;;;;6318936;22;20011;-95
2023/08/22 13:54:44;;;;;;;1.77;0.80;;;;;;;;;;6317301;22;20055;-95
2023/08/22 13:57:10;;;;;;;2.13;0.90;;;;;;;;;;6318268;22;20014;-92
2023/08/22 13:59:40;;;;;;;3.13;0.98;;;;;;;;;;6316922;22;20033;-95
2023/08/22 14:02:06;;;;;;;2.10;1.00;;;;;;;;;;6341667;22;20038;-91
2023/08/22 14:04:32;;;;;;;2.83;0.70;;;;;;;;;;6343898;22;20038;-93
2023/08/22 14:06:58;;;;;;;2.13;1.00;;;;;;;;;;6314920;22;20010;-95
2023/08/22 14:09:25;;;;;;;1.25;0.60;;;;;;;;;;6311463;22;20339;-94
2023/08/22 14:11:51;;;;;;;0.93;0.50;;;;;;;;;;6318434;22;20007;-90
2023/08/22 14:14:17;;;;;;;2.65;0.50;;;;;;;;;;6315123;22;20017;-93
2023/08/22 14:16:43;;;;;;;3.70;0.77;;;;;;;;;;6312328;22;20011;-95
2023/08/22 14:19:09;;;;;;;3.28;0.70;;;;;;;;;;6339890;22;20096;-92
2023/08/22 14:21:35;;;;;;;2.45;0.90;;;;;;;;;;6338091;22;20017;-94
2023/08/22 14:24:01;;;;;;;1.05;0.50;;;;;;;;;;6336506;22;20017;-94
2023/08/22 14:26:27;;;;;;;1.05;0.50;;;;;;;;;;6309207;22;20080;-90
2023/08/22 14:28:53;;;;;;;2.95;0.70;;;;;;;;;;6309905;22;20019;-91
2023/08/22 14:31:19;;;;;;;2.28;0.90;;;;;;;;;;6337116;22;20013;-92
2023/08/22 14:33:45;;;;;;;1.15;0.80;;;;;;;;;;6309725;22;20014;-94
2023/08/22 14:36:11;;;;;;;2.05;1.02;;;;;;;;;;6310517;22;20064;-93
2023/08/22 14:38:37;;;;;;;3.08;0.80;;;;;;;;;;6311159;22;20018;-93
2023/08/22 14:41:03;;;;;;;0.98;0.60;;;;;;;;;;6311381;22;20037;-94